createdAt,value
2022-08-22T00:00:49.520Z,1.23
2022-08-22T00:02:43.290Z,1.75
2022-08-22T00:02:46.652Z,1.30
2022-08-22T00:03:12.456Z,1.83
2022-08-22T00:03:15.374Z,1.25
2022-08-22T00:05:00.912Z,1.67
2022-08-22T00:06:23.037Z,1.50
2022-08-22T00:07:53.945Z,1.42
2022-08-22T00:09:10.663Z,1.67
2022-08-22T00:10:51.924Z,2.05
2022-08-22T00:12:29.897Z,2.33
2022-08-22T00:13:45.215Z,1.40
2022-08-22T00:14:59.408Z,1.70
2022-08-22T00:16:29.473Z,1.23
2022-08-22T00:17:57.971Z,1.48
2022-08-22T00:19:16.962Z,1.70
2022-08-22T00:20:44.713Z,1.42
2022-08-22T00:22:15.678Z,1.60
2022-08-22T00:23:23.364Z,2.08
2022-08-22T00:24:53.623Z,2.40
2022-08-22T00:26:21.435Z,1.98
2022-08-22T00:27:45.152Z,1.77
2022-08-22T00:29:02.771Z,1.67
2022-08-22T00:30:16.969Z,1.60
2022-08-22T00:31:35.456Z,2.35
2022-08-22T00:32:53.432Z,1.33
2022-08-22T00:34:25.406Z,1.80
2022-08-22T00:35:45.098Z,1.88
2022-08-22T00:37:26.574Z,1.27
2022-08-22T00:38:43.274Z,1.63
2022-08-22T00:40:07.782Z,2.50
2022-08-22T00:41:34.215Z,2.28
2022-08-22T00:43:03.800Z,1.42
2022-08-22T00:44:22.531Z,2.30
2022-08-22T00:46:15.802Z,2.17
2022-08-22T00:47:37.473Z,1.75
2022-08-22T00:49:18.190Z,1.60
2022-08-22T00:51:18.878Z,2.38
2022-08-22T00:53:19.916Z,1.70
2022-08-22T00:55:11.680Z,1.40
2022-08-22T00:56:37.776Z,2.15
2022-08-22T00:57:53.565Z,1.30
2022-08-22T00:59:24.180Z,2.28
2022-08-22T01:00:36.517Z,1.63
2022-08-22T01:02:37.715Z,1.30
2022-08-22T01:04:04.546Z,1.83
2022-08-22T01:05:32.319Z,2.08
2022-08-22T01:07:54.451Z,1.85
2022-08-22T01:10:15.003Z,1.75
2022-08-22T01:11:41.778Z,1.77
2022-08-22T01:13:26.871Z,2.30
2022-08-22T01:14:53.158Z,1.70
2022-08-22T01:16:35.274Z,2.22
2022-08-22T01:18:14.719Z,2.58
2022-08-22T01:19:55.445Z,2.05
2022-08-22T01:21:42.385Z,1.77
2022-08-22T01:23:07.646Z,2.45
2022-08-22T01:25:18.467Z,2.05
2022-08-22T01:26:44.824Z,2.30
2022-08-22T01:28:11.989Z,3.00
2022-08-22T01:30:01.780Z,1.73
2022-08-22T01:32:03.300Z,2.10
2022-08-22T01:33:48.503Z,1.80
2022-08-22T01:35:30.521Z,2.65
2022-08-22T01:37:22.318Z,1.40
2022-08-22T01:38:50.894Z,2.83
2022-08-22T01:40:26.426Z,2.03
2022-08-22T01:41:46.076Z,2.45
2022-08-22T01:43:10.469Z,1.77
2022-08-22T01:44:35.841Z,2.05
2022-08-22T01:46:12.029Z,2.40
2022-08-22T01:47:26.823Z,2.28
2022-08-22T01:49:04.881Z,2.90
2022-08-22T01:50:23.914Z,2.30
2022-08-22T01:51:45.483Z,2.03
2022-08-22T01:53:25.180Z,1.90
2022-08-22T01:55:18.942Z,2.50
2022-08-22T01:56:27.082Z,2.67
2022-08-22T01:57:31.184Z,2.88
2022-08-22T01:58:55.463Z,2.35
2022-08-22T02:00:08.736Z,2.80
2022-08-22T02:01:32.607Z,3.15
2022-08-22T02:03:13.785Z,2.90
2022-08-22T02:05:06.809Z,3.28
2022-08-22T02:07:14.438Z,2.35
2022-08-22T02:08:34.077Z,2.95
2022-08-22T02:10:04.821Z,2.10
2022-08-22T02:11:31.796Z,3.15
2022-08-22T02:12:45.269Z,2.53
2022-08-22T02:14:17.675Z,3.15
2022-08-22T02:15:47.717Z,2.03
2022-08-22T02:17:13.985Z,1.92
2022-08-22T02:18:42.134Z,2.50
2022-08-22T02:20:20.478Z,4.03
2022-08-22T02:21:55.967Z,1.88
2022-08-22T02:23:21.815Z,2.60
2022-08-22T02:24:34.838Z,3.00
2022-08-22T02:26:21.487Z,2.90
2022-08-22T02:27:58.657Z,2.20
2022-08-22T02:29:14.442Z,2.83
2022-08-22T02:30:43.142Z,2.60
2022-08-22T02:32:01.123Z,2.30
2022-08-22T02:33:34.438Z,3.25
2022-08-22T02:34:55.324Z,2.95
2022-08-22T02:36:25.276Z,2.38
2022-08-22T02:38:06.120Z,1.75
2022-08-22T02:39:37.939Z,2.33
2022-08-22T02:41:12.845Z,2.47
2022-08-22T02:42:57.665Z,2.55
2022-08-22T02:44:14.243Z,2.53
2022-08-22T02:45:54.047Z,2.38
2022-08-22T02:47:46.369Z,3.17
2022-08-22T02:49:17.576Z,2.97
2022-08-22T02:50:57.746Z,2.08
2022-08-22T02:52:25.422Z,2.50
2022-08-22T02:53:53.757Z,2.38
2022-08-22T02:55:09.111Z,2.83
2022-08-22T02:56:48.669Z,2.80
2022-08-22T02:58:24.066Z,2.05
2022-08-22T02:59:27.741Z,1.60
2022-08-22T03:01:02.614Z,1.77
2022-08-22T03:02:42.321Z,2.47
2022-08-22T03:03:49.830Z,3.22
2022-08-22T03:05:15.782Z,3.00
2022-08-22T03:06:42.418Z,3.13
2022-08-22T03:08:08.436Z,2.83
2022-08-22T03:09:15.713Z,2.38
2022-08-22T03:10:28.451Z,3.03
2022-08-22T03:11:39.861Z,1.65
2022-08-22T03:13:11.764Z,2.55
2022-08-22T03:14:39.238Z,2.00
2022-08-22T03:16:14.165Z,1.70
2022-08-22T03:17:31.900Z,1.73
2022-08-22T03:19:04.740Z,2.35
2022-08-22T03:20:32.966Z,2.03
2022-08-22T03:21:48.150Z,2.42
2022-08-22T03:23:11.194Z,1.50
2022-08-22T03:24:32.173Z,2.60
2022-08-22T03:26:28.247Z,2.28
2022-08-22T03:28:00.973Z,2.00
2022-08-22T03:29:26.211Z,1.73
2022-08-22T03:30:56.329Z,1.85
2022-08-22T03:32:21.565Z,2.83
2022-08-22T03:33:31.082Z,2.20
2022-08-22T03:34:36.512Z,2.10
2022-08-22T03:36:14.756Z,2.22
2022-08-22T03:37:26.569Z,2.15
2022-08-22T03:39:19.084Z,2.50
2022-08-22T03:40:33.380Z,2.03
2022-08-22T03:42:29.881Z,1.85
2022-08-22T03:44:02.726Z,2.28
2022-08-22T03:46:14.798Z,1.42
2022-08-22T03:47:46.485Z,1.52
2022-08-22T03:49:23.724Z,2.58
2022-08-22T03:51:19.856Z,2.47
2022-08-22T03:53:12.165Z,2.58
2022-08-22T03:55:03.299Z,2.00
2022-08-22T03:57:08.533Z,2.42
2022-08-22T03:59:01.085Z,1.85
2022-08-22T04:00:34.385Z,1.88
2022-08-22T04:02:42.107Z,1.80
2022-08-22T04:04:28.871Z,1.65
2022-08-22T04:05:53.302Z,1.60
2022-08-22T04:07:53.174Z,2.03
2022-08-22T04:09:44.253Z,1.77
2022-08-22T04:11:19.442Z,2.15
2022-08-22T04:12:50.365Z,1.70
2022-08-22T04:14:24.491Z,1.98
2022-08-22T04:16:03.571Z,1.70
2022-08-22T04:17:46.794Z,1.67
2022-08-22T04:19:19.850Z,2.13
2022-08-22T04:21:00.765Z,2.38
2022-08-22T04:22:45.397Z,1.75
2022-08-22T04:24:07.379Z,1.83
2022-08-22T04:25:25.834Z,2.40
2022-08-22T04:26:55.420Z,2.35
2022-08-22T04:28:20.302Z,2.30
2022-08-22T04:29:58.489Z,1.67
2022-08-22T04:31:12.421Z,2.25
2022-08-22T04:32:38.452Z,1.80
2022-08-22T04:34:26.480Z,2.70
2022-08-22T04:35:59.687Z,2.22
2022-08-22T04:37:38.400Z,2.20
2022-08-22T04:38:57.144Z,1.55
2022-08-22T04:40:12.255Z,1.52
2022-08-22T04:41:53.678Z,2.53
2022-08-22T04:43:43.273Z,1.88
2022-08-22T04:45:08.225Z,1.90
2022-08-22T04:46:41.769Z,1.90
2022-08-22T04:48:01.160Z,2.00
2022-08-22T04:49:37.466Z,2.03
2022-08-22T04:51:11.227Z,2.63
2022-08-22T04:52:49.835Z,1.80
2022-08-22T04:54:33.941Z,1.73
2022-08-22T04:55:56.235Z,2.60
2022-08-22T04:57:39.766Z,1.70
2022-08-22T04:59:13.024Z,2.10
2022-08-22T05:00:18.919Z,1.67
2022-08-22T05:01:56.581Z,2.35
2022-08-22T05:03:08.631Z,3.17
2022-08-22T05:04:21.433Z,2.58
2022-08-22T05:05:36.410Z,2.20
2022-08-22T05:07:07.130Z,2.13
2022-08-22T05:08:21.526Z,2.03
2022-08-22T05:09:34.096Z,2.50
2022-08-22T05:10:46.669Z,1.67
2022-08-22T05:11:59.560Z,2.15
2022-08-22T05:13:12.241Z,2.30
2022-08-22T05:14:28.325Z,2.55
2022-08-22T05:15:41.900Z,2.55
2022-08-22T05:16:53.036Z,2.03
2022-08-22T05:18:06.761Z,2.45
2022-08-22T05:19:27.099Z,1.90
2022-08-22T05:20:37.194Z,1.63
2022-08-22T05:21:43.813Z,2.05
2022-08-22T05:22:55.917Z,3.00
2022-08-22T05:24:09.041Z,2.47
2022-08-22T05:25:22.173Z,2.70
2022-08-22T05:26:29.447Z,2.17
2022-08-22T05:27:42.387Z,2.42
2022-08-22T05:28:56.962Z,2.53
2022-08-22T05:30:16.711Z,2.45
2022-08-22T05:31:35.069Z,2.85
2022-08-22T05:33:16.649Z,2.38
2022-08-22T05:34:28.923Z,2.95
2022-08-22T05:35:49.551Z,2.47
2022-08-22T05:37:18.017Z,1.90
2022-08-22T05:38:29.473Z,2.30
2022-08-22T05:39:35.241Z,2.78
2022-08-22T05:40:40.597Z,2.63
2022-08-22T05:41:45.684Z,2.13
2022-08-22T05:42:50.910Z,2.58
2022-08-22T05:43:56.233Z,2.53
2022-08-22T05:45:11.493Z,2.47
2022-08-22T05:47:03.402Z,2.10
2022-08-22T05:48:30.451Z,2.97
2022-08-22T05:49:52.645Z,2.70
2022-08-22T05:51:11.853Z,2.88
2022-08-22T05:52:56.985Z,3.38
2022-08-22T05:54:33.574Z,2.80
2022-08-22T05:56:00.763Z,3.67
2022-08-22T05:57:37.191Z,3.10
2022-08-22T05:58:44.235Z,2.28
2022-08-22T06:00:00.945Z,3.00
2022-08-22T06:01:32.140Z,2.45
2022-08-22T06:03:13.496Z,2.50
2022-08-22T06:04:31.680Z,2.20
2022-08-22T06:05:43.202Z,2.53
2022-08-22T06:07:08.488Z,3.15
2022-08-22T06:08:24.898Z,3.08
2022-08-22T06:09:48.134Z,2.45
2022-08-22T06:10:59.802Z,2.92
2022-08-22T06:12:22.323Z,2.60
2022-08-22T06:13:41.625Z,3.33
2022-08-22T06:15:21.011Z,2.53
2022-08-22T06:16:37.696Z,2.70
2022-08-22T06:17:55.310Z,3.58
2022-08-22T06:19:05.490Z,3.35
2022-08-22T06:20:35.133Z,2.72
2022-08-22T06:21:42.055Z,2.60
2022-08-22T06:22:58.014Z,2.55
2022-08-22T06:24:09.208Z,3.47
2022-08-22T06:25:22.234Z,2.83
2022-08-22T06:26:34.827Z,3.22
2022-08-22T06:27:39.931Z,3.05
2022-08-22T06:28:55.196Z,2.58
2022-08-22T06:30:07.108Z,2.67
2022-08-22T06:31:22.554Z,3.33
2022-08-22T06:32:58.343Z,2.92
2022-08-22T06:34:32.016Z,3.33
2022-08-22T06:36:09.923Z,2.78
2022-08-22T06:37:38.428Z,3.70
2022-08-22T06:39:15.285Z,3.00
2022-08-22T06:40:20.202Z,3.63
2022-08-22T06:41:30.548Z,3.00
2022-08-22T06:42:42.543Z,3.28
2022-08-22T06:43:46.662Z,2.83
2022-08-22T06:45:05.968Z,3.08
2022-08-22T06:46:16.495Z,4.50
2022-08-22T06:47:30.798Z,3.13
2022-08-22T06:48:37.521Z,3.83
2022-08-22T06:49:45.769Z,3.40
2022-08-22T06:50:58.771Z,3.35
2022-08-22T06:52:25.269Z,3.83
2022-08-22T06:53:47.658Z,4.15
2022-08-22T06:55:01.838Z,3.88
2022-08-22T06:56:06.987Z,3.53
2022-08-22T06:58:04.199Z,4.55
2022-08-22T06:59:19.208Z,4.55
2022-08-22T07:00:24.304Z,4.55
2022-08-22T07:01:39.678Z,3.67
2022-08-22T07:03:20.689Z,4.10
2022-08-22T07:04:27.227Z,3.45
2022-08-22T07:05:39.325Z,3.60
2022-08-22T07:06:52.047Z,4.95
2022-08-22T07:07:57.663Z,4.18
2022-08-22T07:09:06.835Z,4.32
2022-08-22T07:10:17.056Z,4.68
2022-08-22T07:11:31.049Z,4.60
2022-08-22T07:12:39.249Z,4.20
2022-08-22T07:14:07.739Z,3.53
2022-08-22T07:15:36.885Z,4.65
2022-08-22T07:16:50.840Z,3.53
2022-08-22T07:18:03.701Z,4.90
2022-08-22T07:19:13.464Z,3.58
2022-08-22T07:20:35.271Z,3.90
2022-08-22T07:21:47.688Z,3.65
2022-08-22T07:23:12.718Z,4.13
2022-08-22T07:24:29.914Z,3.88
2022-08-22T07:25:55.655Z,3.75
2022-08-22T07:27:52.417Z,3.72
2022-08-22T07:29:28.850Z,3.53
2022-08-22T07:30:57.719Z,3.03
2022-08-22T07:32:14.495Z,3.55
2022-08-22T07:33:44.496Z,3.55
2022-08-22T07:35:16.031Z,3.65
2022-08-22T07:37:02.407Z,3.88
2022-08-22T07:38:47.683Z,4.03
2022-08-22T07:40:27.592Z,3.38
2022-08-22T07:42:10.604Z,4.05
2022-08-22T07:43:46.918Z,3.45
2022-08-22T07:45:09.771Z,3.80
2022-08-22T07:46:33.217Z,4.32
2022-08-22T07:48:01.762Z,3.40
2022-08-22T07:49:22.749Z,3.67
2022-08-22T07:50:35.783Z,3.83
2022-08-22T07:51:49.885Z,4.05
2022-08-22T07:53:04.330Z,3.75
2022-08-22T07:54:14.222Z,3.88
2022-08-22T07:55:26.164Z,3.75
2022-08-22T07:56:38.234Z,3.67
2022-08-22T07:57:53.345Z,4.25
2022-08-22T07:59:13.059Z,4.75
2022-08-22T08:00:21.542Z,3.53
2022-08-22T08:01:27.461Z,4.65
2022-08-22T08:02:31.779Z,4.45
2022-08-22T08:03:36.945Z,4.55
2022-08-22T08:04:42.961Z,5.30
2022-08-22T08:05:47.438Z,5.63
2022-08-22T08:06:56.930Z,4.30
2022-08-22T08:08:15.775Z,4.18
2022-08-22T08:09:21.989Z,3.83
2022-08-22T08:10:37.085Z,4.13
2022-08-22T08:11:45.067Z,4.40
2022-08-22T08:13:02.247Z,3.95
2022-08-22T08:14:13.604Z,4.35
2022-08-22T08:15:22.544Z,4.05
2022-08-22T08:16:34.686Z,4.05
2022-08-22T08:17:41.762Z,3.97
2022-08-22T08:18:50.465Z,4.15
2022-08-22T08:19:57.118Z,4.13
2022-08-22T08:21:09.085Z,4.53
2022-08-22T08:22:23.112Z,4.78
2022-08-22T08:23:39.602Z,4.25
2022-08-22T08:24:45.726Z,4.10
2022-08-22T08:25:57.838Z,4.60
2022-08-22T08:27:25.495Z,4.10
2022-08-22T08:28:36.413Z,4.25
2022-08-22T08:29:46.221Z,4.85
2022-08-22T08:31:05.784Z,4.18
2022-08-22T08:32:13.416Z,4.32
2022-08-22T08:33:26.732Z,4.07
2022-08-22T08:34:35.470Z,5.35
2022-08-22T08:35:49.612Z,4.53
2022-08-22T08:37:41.574Z,4.78
2022-08-22T08:38:58.281Z,4.10
2022-08-22T08:40:18.750Z,4.68
2022-08-22T08:41:53.135Z,3.90
2022-08-22T08:43:35.167Z,4.25
2022-08-22T08:45:08.219Z,3.88
2022-08-22T08:47:01.256Z,4.57
2022-08-22T08:48:16.637Z,4.25
2022-08-22T08:49:43.632Z,3.88
2022-08-22T08:51:53.986Z,3.80
2022-08-22T08:53:18.709Z,3.78
2022-08-22T08:55:19.726Z,4.22
2022-08-22T08:56:54.285Z,4.28
2022-08-22T08:58:27.103Z,4.85
2022-08-22T08:59:54.505Z,5.10
2022-08-22T09:04:33.503Z,4.45
2022-08-22T09:06:08.300Z,4.65
2022-08-22T09:07:47.867Z,4.85
2022-08-22T09:09:07.915Z,4.80
2022-08-22T09:10:46.838Z,4.85
2022-08-22T09:12:01.983Z,4.05
2022-08-22T09:13:41.794Z,4.22
2022-08-22T09:14:48.480Z,4.63
2022-08-22T09:16:06.114Z,4.50
2022-08-22T09:17:54.244Z,5.00
2022-08-22T09:19:46.326Z,4.93
2022-08-22T09:21:30.772Z,5.25
2022-08-22T09:23:22.545Z,4.45
2022-08-22T09:24:41.277Z,5.72
2022-08-22T09:25:57.279Z,5.13
2022-08-22T09:27:13.773Z,5.18
2022-08-22T09:28:41.924Z,4.38
2022-08-22T09:30:19.796Z,4.68
2022-08-22T09:32:36.087Z,5.53
2022-08-22T09:33:51.897Z,5.22
2022-08-22T09:35:25.929Z,6.03
2022-08-22T09:36:55.038Z,4.68
2022-08-22T09:38:47.834Z,4.50
2022-08-22T09:40:39.466Z,4.47
2022-08-22T09:42:02.842Z,5.18
2022-08-22T09:43:25.221Z,6.25
2022-08-22T09:44:48.617Z,5.68
2022-08-22T09:46:07.236Z,6.03
2022-08-22T09:47:24.607Z,6.47
2022-08-22T09:48:58.427Z,5.80
2022-08-22T09:50:32.586Z,6.15
2022-08-22T09:52:15.179Z,6.22
2022-08-22T09:53:57.740Z,6.63
2022-08-22T09:55:39.003Z,6.75
2022-08-22T09:56:54.800Z,6.85
2022-08-22T09:58:41.577Z,6.78
2022-08-22T09:59:58.074Z,5.90
2022-08-22T10:01:42.322Z,5.93
2022-08-22T10:03:23.482Z,6.03
2022-08-22T10:05:00.773Z,6.10
2022-08-22T10:06:20.857Z,6.93
2022-08-22T10:08:14.519Z,6.30
2022-08-22T10:09:37.354Z,7.22
2022-08-22T10:11:13.434Z,5.35
2022-08-22T10:12:35.169Z,5.85
2022-08-22T10:13:57.507Z,7.15
2022-08-22T10:15:23.466Z,6.07
2022-08-22T10:17:26.360Z,4.72
2022-08-22T10:19:00.796Z,4.97
2022-08-22T10:20:28.460Z,5.53
2022-08-22T10:22:06.616Z,6.22
2022-08-22T10:23:24.266Z,5.07
2022-08-22T10:25:20.487Z,6.30
2022-08-22T10:26:48.961Z,5.18
2022-08-22T10:28:16.173Z,6.38
2022-08-22T10:29:43.035Z,5.82
2022-08-22T10:31:26.764Z,6.28
2022-08-22T10:33:03.792Z,5.95
2022-08-22T10:34:40.644Z,5.40
2022-08-22T10:36:15.751Z,5.78
2022-08-22T10:37:39.814Z,6.35
2022-08-22T10:38:58.644Z,5.75
2022-08-22T10:40:30.890Z,5.95
2022-08-22T10:42:03.709Z,6.10
2022-08-22T10:43:56.605Z,5.95
2022-08-22T10:45:23.616Z,5.90
2022-08-22T10:46:57.601Z,6.35
2022-08-22T10:48:10.566Z,4.60
2022-08-22T10:50:03.466Z,4.88
2022-08-22T10:51:53.946Z,5.97
2022-08-22T10:53:31.354Z,5.55
2022-08-22T10:54:56.604Z,5.30
2022-08-22T10:56:37.079Z,5.22
2022-08-22T10:58:11.333Z,5.38
2022-08-22T10:59:30.366Z,4.25
2022-08-22T11:01:38.594Z,5.18
2022-08-22T11:03:00.954Z,5.72
2022-08-22T11:04:56.294Z,5.10
2022-08-22T11:06:10.564Z,5.93
2022-08-22T11:08:06.650Z,5.68
2022-08-22T11:09:44.536Z,5.43
2022-08-22T11:11:18.347Z,4.20
2022-08-22T11:12:36.793Z,5.57
2022-08-22T11:14:22.265Z,5.22
2022-08-22T11:16:30.360Z,5.22
2022-08-22T11:18:28.665Z,4.72
2022-08-22T11:20:21.437Z,5.95
2022-08-22T11:21:48.799Z,4.70
2022-08-22T11:23:40.837Z,5.28
2022-08-22T11:25:11.368Z,5.15
2022-08-22T11:26:47.470Z,4.40
2022-08-22T11:28:29.713Z,5.47
2022-08-22T11:29:44.996Z,4.95
2022-08-22T11:31:03.759Z,4.53
2022-08-22T11:32:40.203Z,6.47
2022-08-22T11:34:07.039Z,6.85
2022-08-22T11:35:22.313Z,5.75
2022-08-22T11:36:47.389Z,6.97
2022-08-22T11:38:28.071Z,7.75
2022-08-22T11:40:24.519Z,5.97
2022-08-22T11:41:44.772Z,6.43
2022-08-22T11:43:27.710Z,7.28
2022-08-22T11:44:56.849Z,7.28
2022-08-22T11:46:21.138Z,6.97
2022-08-22T11:47:52.965Z,6.55
2022-08-22T11:49:25.635Z,7.38
2022-08-22T11:51:24.696Z,7.35
2022-08-22T11:52:55.496Z,7.10
2022-08-22T11:54:22.337Z,6.72
2022-08-22T11:55:49.152Z,6.28
2022-08-22T11:57:11.290Z,5.32
2022-08-22T11:58:28.876Z,6.47
2022-08-22T11:59:43.231Z,7.03
2022-08-22T12:01:18.502Z,7.35
2022-08-22T12:02:39.649Z,6.85
2022-08-22T12:04:09.705Z,6.00
2022-08-22T12:05:47.018Z,7.05
2022-08-22T12:07:25.727Z,5.88
2022-08-22T12:08:35.777Z,6.85
2022-08-22T12:09:59.821Z,5.65
2022-08-22T12:11:25.527Z,5.60
2022-08-22T12:12:55.653Z,6.05
2022-08-22T12:14:27.030Z,5.38
2022-08-22T12:16:01.510Z,6.88
2022-08-22T12:17:55.117Z,6.65
2022-08-22T12:19:34.283Z,5.43
2022-08-22T12:21:34.209Z,5.50
2022-08-22T12:23:20.026Z,6.03
2022-08-22T12:25:08.204Z,6.03
2022-08-22T12:26:36.596Z,5.82
2022-08-22T12:28:17.342Z,5.50
2022-08-22T12:29:45.233Z,4.75
2022-08-22T12:31:08.117Z,5.90
2022-08-22T12:32:36.231Z,6.60
2022-08-22T12:34:25.522Z,6.05
2022-08-22T12:36:00.798Z,5.43
2022-08-22T12:37:52.172Z,6.90
2022-08-22T12:39:29.894Z,5.18
2022-08-22T12:40:59.854Z,6.07
2022-08-22T12:42:29.781Z,5.95
2022-08-22T12:44:17.259Z,6.05
2022-08-22T12:45:42.108Z,5.72
2022-08-22T12:47:23.406Z,6.60
2022-08-22T12:48:53.606Z,6.63
2022-08-22T12:50:37.964Z,6.05
2022-08-22T12:52:25.194Z,6.07
2022-08-22T12:54:23.759Z,5.80
2022-08-22T12:55:58.166Z,6.28
2022-08-22T12:57:24.473Z,4.80
2022-08-22T12:58:41.285Z,6.63
2022-08-22T12:59:52.487Z,5.88
2022-08-22T13:01:06.291Z,5.10
2022-08-22T13:02:38.121Z,5.50
2022-08-22T13:03:51.254Z,6.10
2022-08-22T13:05:24.024Z,3.97
2022-08-22T13:06:36.253Z,4.72
2022-08-22T13:07:49.480Z,5.53
2022-08-22T13:08:55.999Z,4.78
2022-08-22T13:10:48.753Z,5.55
2022-08-22T13:12:02.478Z,4.85
2022-08-22T13:13:12.125Z,5.80
2022-08-22T13:14:26.142Z,4.40
2022-08-22T13:15:36.430Z,5.53
2022-08-22T13:16:51.006Z,4.82
2022-08-22T13:18:13.272Z,6.18
2022-08-22T13:19:32.383Z,4.68
2022-08-22T13:20:41.789Z,6.38
2022-08-22T13:22:10.087Z,5.55
2022-08-22T13:23:32.300Z,5.20
2022-08-22T13:24:51.780Z,5.90
2022-08-22T13:26:33.242Z,5.57
2022-08-22T13:28:03.803Z,5.25
2022-08-22T13:29:57.079Z,5.65
2022-08-22T13:31:03.901Z,5.85
2022-08-22T13:32:26.363Z,4.95
2022-08-22T13:33:47.322Z,5.88
2022-08-22T13:34:59.700Z,5.40
2022-08-22T13:36:12.978Z,4.30
2022-08-22T13:37:24.846Z,4.65
2022-08-22T13:39:10.281Z,5.20
2022-08-22T13:40:33.346Z,5.55
2022-08-22T13:41:53.018Z,5.68
2022-08-22T13:43:13.072Z,5.57
2022-08-22T13:44:30.028Z,6.28
2022-08-22T13:45:37.153Z,5.00
2022-08-22T13:47:04.160Z,5.95
2022-08-22T13:48:13.583Z,5.03
2022-08-22T13:49:33.552Z,5.57
2022-08-22T13:51:05.725Z,4.85
2022-08-22T13:52:58.418Z,5.20
2022-08-22T13:54:12.749Z,5.32
2022-08-22T13:55:25.245Z,5.38
2022-08-22T13:57:11.074Z,5.03
2022-08-22T13:58:46.363Z,5.78
2022-08-22T14:00:25.401Z,5.10
2022-08-22T14:01:56.992Z,4.93
2022-08-22T14:03:18.424Z,4.65
2022-08-22T14:04:33.370Z,5.15
2022-08-22T14:06:06.155Z,4.40
2022-08-22T14:07:35.882Z,5.13
2022-08-22T14:08:45.834Z,4.47
2022-08-22T14:09:57.715Z,4.30
2022-08-22T14:11:30.854Z,4.90
2022-08-22T14:12:50.026Z,4.32
2022-08-22T14:14:06.691Z,5.60
2022-08-22T14:15:21.250Z,5.10
2022-08-22T14:16:55.254Z,5.03
2022-08-22T14:18:13.915Z,5.35
2022-08-22T14:19:58.978Z,4.78
2022-08-22T14:21:28.033Z,4.47
2022-08-22T14:22:41.005Z,5.00
2022-08-22T14:23:51.540Z,5.03
2022-08-22T14:25:05.289Z,4.50
2022-08-22T14:26:33.020Z,4.88
2022-08-22T14:28:06.126Z,5.07
2022-08-22T14:29:17.788Z,4.38
2022-08-22T14:30:31.568Z,5.72
2022-08-22T14:31:36.615Z,5.03
2022-08-22T14:32:55.443Z,4.10
2022-08-22T14:34:10.744Z,4.22
2022-08-22T14:35:52.746Z,4.70
2022-08-22T14:37:16.152Z,4.53
2022-08-22T14:38:32.256Z,5.00
2022-08-22T14:39:46.308Z,5.43
2022-08-22T14:41:08.343Z,4.88
2022-08-22T14:42:22.986Z,4.90
2022-08-22T14:43:29.754Z,5.85
2022-08-22T14:45:02.328Z,5.10
2022-08-22T14:46:26.700Z,4.93
2022-08-22T14:48:31.708Z,5.00
2022-08-22T14:49:53.692Z,5.78
2022-08-22T14:51:10.258Z,5.47
2022-08-22T14:52:43.492Z,5.25
2022-08-22T14:53:48.590Z,4.32
2022-08-22T14:55:12.850Z,4.93
2022-08-22T14:56:29.647Z,5.22
2022-08-22T14:57:41.484Z,4.85
2022-08-22T14:59:02.783Z,4.40
2022-08-22T15:00:12.631Z,4.93
2022-08-22T15:01:25.056Z,4.97
2022-08-22T15:02:33.299Z,4.93
2022-08-22T15:03:40.094Z,5.35
2022-08-22T15:04:48.612Z,4.43
2022-08-22T15:06:05.807Z,4.75
2022-08-22T15:07:21.381Z,5.28
2022-08-22T15:08:48.456Z,5.10
2022-08-22T15:10:17.657Z,5.00
2022-08-22T15:11:31.872Z,4.78
2022-08-22T15:12:49.873Z,4.60
2022-08-22T15:14:03.234Z,4.25
2022-08-22T15:15:26.758Z,4.78
2022-08-22T15:17:07.510Z,5.13
2022-08-22T15:18:33.686Z,4.68
2022-08-22T15:19:44.461Z,5.25
2022-08-22T15:21:09.960Z,5.28
2022-08-22T15:22:25.931Z,4.70
2022-08-22T15:23:33.592Z,4.65
2022-08-22T15:24:58.167Z,5.05
2022-08-22T15:26:13.341Z,4.85
2022-08-22T15:27:22.148Z,5.30
2022-08-22T15:28:27.797Z,4.20
2022-08-22T15:30:07.740Z,4.68
2022-08-22T15:31:25.647Z,4.95
2022-08-22T15:32:41.802Z,4.78
2022-08-22T15:33:49.515Z,4.57
2022-08-22T15:35:06.622Z,6.20
2022-08-22T15:36:24.346Z,4.70
2022-08-22T15:37:32.993Z,5.53
2022-08-22T15:39:15.669Z,4.93
2022-08-22T15:40:45.713Z,5.00
2022-08-22T15:41:51.313Z,4.60
2022-08-22T15:42:58.303Z,4.60
2022-08-22T15:44:33.499Z,4.85
2022-08-22T15:45:39.781Z,4.57
2022-08-22T15:46:52.597Z,4.88
2022-08-22T15:48:01.437Z,4.85
2022-08-22T15:49:20.657Z,4.40
2022-08-22T15:50:30.179Z,4.30
2022-08-22T15:51:51.967Z,5.53
2022-08-22T15:53:39.022Z,5.47
2022-08-22T15:54:54.677Z,4.20
2022-08-22T15:56:07.078Z,4.15
2022-08-22T15:57:14.524Z,3.90
2022-08-22T15:58:25.444Z,4.63
2022-08-22T15:59:48.047Z,4.53
2022-08-22T16:01:25.009Z,4.47
2022-08-22T16:02:59.746Z,4.57
2022-08-22T16:04:14.760Z,3.92
2022-08-22T16:05:55.374Z,4.57
2022-08-22T16:07:05.439Z,4.25
2022-08-22T16:08:36.890Z,4.22
2022-08-22T16:09:44.575Z,4.88
2022-08-22T16:11:16.523Z,4.50
2022-08-22T16:12:36.810Z,5.40
2022-08-22T16:13:44.485Z,3.88
2022-08-22T16:14:51.782Z,5.18
2022-08-22T16:15:56.876Z,4.68
2022-08-22T16:17:23.349Z,4.72
2022-08-22T16:18:42.811Z,5.28
2022-08-22T16:19:46.806Z,4.88
2022-08-22T16:20:56.135Z,5.85
2022-08-22T16:22:00.299Z,4.70
2022-08-22T16:23:04.117Z,5.47
2022-08-22T16:24:08.123Z,4.85
2022-08-22T16:25:12.104Z,4.70
2022-08-22T16:26:23.738Z,6.00
2022-08-22T16:27:28.519Z,4.88
2022-08-22T16:28:58.890Z,5.22
2022-08-22T16:30:11.324Z,5.07
2022-08-22T16:31:33.377Z,4.95
2022-08-22T16:32:39.037Z,5.38
2022-08-22T16:33:45.234Z,5.07
2022-08-22T16:34:50.446Z,6.03
2022-08-22T16:36:36.216Z,5.85
2022-08-22T16:37:50.180Z,5.65
2022-08-22T16:38:57.861Z,5.30
2022-08-22T16:40:02.032Z,6.07
2022-08-22T16:41:06.378Z,5.57
2022-08-22T16:42:16.114Z,6.57
2022-08-22T16:43:20.734Z,6.22
2022-08-22T16:44:30.584Z,6.47
2022-08-22T16:45:41.236Z,5.55
2022-08-22T16:46:47.704Z,6.50
2022-08-22T16:47:58.197Z,5.70
2022-08-22T16:49:03.760Z,6.28
2022-08-22T16:50:18.532Z,6.97
2022-08-22T16:51:22.745Z,7.13
2022-08-22T16:52:26.663Z,6.82
2022-08-22T16:53:30.542Z,6.80
2022-08-22T16:54:47.862Z,6.32
2022-08-22T16:56:06.455Z,8.48
2022-08-22T16:57:30.044Z,5.82
2022-08-22T16:58:58.931Z,6.22
2022-08-22T17:00:24.328Z,7.82
2022-08-22T17:02:10.937Z,6.15
2022-08-22T17:03:32.988Z,6.75
2022-08-22T17:05:22.132Z,6.47
2022-08-22T17:06:50.006Z,6.13
2022-08-22T17:08:21.415Z,7.68
2022-08-22T17:10:20.657Z,7.45
2022-08-22T17:11:43.265Z,7.03
2022-08-22T17:13:34.191Z,7.65
2022-08-22T17:15:19.693Z,6.18
2022-08-22T17:16:52.106Z,8.10
2022-08-22T17:18:35.935Z,7.22
2022-08-22T17:20:13.679Z,7.25
2022-08-22T17:21:32.752Z,8.23
2022-08-22T17:23:00.338Z,7.38
2022-08-22T17:24:33.737Z,7.75
2022-08-22T17:26:27.400Z,7.53
2022-08-22T17:27:40.174Z,6.88
2022-08-22T17:29:15.177Z,8.18
2022-08-22T17:30:46.623Z,8.07
2022-08-22T17:32:17.734Z,7.25
2022-08-22T17:33:53.027Z,7.60
2022-08-22T17:35:21.630Z,7.72
2022-08-22T17:36:49.349Z,8.50
2022-08-22T17:38:17.457Z,7.72
2022-08-22T17:40:00.886Z,7.53
2022-08-22T17:41:19.979Z,7.55
2022-08-22T17:42:49.464Z,9.05
2022-08-22T17:44:14.034Z,8.15
2022-08-22T17:45:31.079Z,7.95
2022-08-22T17:46:49.708Z,9.07
2022-08-22T17:48:41.549Z,7.53
2022-08-22T17:50:06.229Z,7.72
2022-08-22T17:51:43.431Z,7.65
2022-08-22T17:53:22.305Z,8.93
2022-08-22T17:55:13.316Z,7.85
2022-08-22T17:57:17.026Z,8.70
2022-08-22T17:58:37.445Z,8.55
2022-08-22T18:00:00.139Z,8.70
2022-08-22T18:01:16.136Z,7.57
2022-08-22T18:02:27.592Z,8.63
2022-08-22T18:03:37.845Z,8.38
2022-08-22T18:05:00.541Z,9.38
2022-08-22T18:06:21.390Z,7.95
2022-08-22T18:07:55.994Z,8.20
2022-08-22T18:09:18.757Z,8.68
2022-08-22T18:10:42.644Z,8.45
2022-08-22T18:12:16.234Z,8.35
2022-08-22T18:14:21.331Z,8.15
2022-08-22T18:15:57.794Z,10.00
2022-08-22T18:17:22.028Z,9.27
2022-08-22T18:18:47.361Z,7.57
2022-08-22T18:19:57.020Z,8.85
2022-08-22T18:21:15.457Z,10.90
2022-08-22T18:22:31.903Z,9.32
2022-08-22T18:23:45.841Z,8.43
2022-08-22T18:25:11.790Z,8.52
2022-08-22T18:26:54.747Z,9.20
2022-08-22T18:28:26.036Z,9.15
2022-08-22T18:29:33.274Z,8.82
2022-08-22T18:31:19.224Z,8.32
2022-08-22T18:32:38.283Z,10.05
2022-08-22T18:34:01.879Z,8.48
2022-08-22T18:35:25.401Z,8.82
2022-08-22T18:36:38.219Z,10.27
2022-08-22T18:37:56.448Z,7.95
2022-08-22T18:39:43.083Z,9.05
2022-08-22T18:40:59.432Z,9.02
2022-08-22T18:42:31.394Z,9.23
2022-08-22T18:43:48.395Z,9.38
2022-08-22T18:44:52.432Z,8.88
2022-08-22T18:46:03.588Z,8.63
2022-08-22T18:47:34.785Z,9.90
2022-08-22T18:49:11.725Z,7.85
2022-08-22T18:50:34.384Z,9.02
2022-08-22T18:51:39.000Z,9.43
2022-08-22T18:52:44.372Z,9.52
2022-08-22T18:54:00.239Z,8.80
2022-08-22T18:55:27.374Z,8.60
2022-08-22T18:56:54.320Z,8.77
2022-08-22T18:58:31.553Z,7.07
2022-08-22T18:59:54.383Z,8.40
2022-08-22T19:01:51.032Z,9.10
2022-08-22T19:03:12.766Z,9.25
2022-08-22T19:05:18.541Z,7.53
2022-08-22T19:06:46.380Z,8.50
2022-08-22T19:07:58.891Z,7.63